Time;durP1;ratioP1;P1;durP2;ratioP2;P2;SDS_P1;SDS_P2;PMS_P1;PMS_P2;Temp;Humidity;BMP_temperature;BMP_pressure;BME280_temperature;BME280_humidity;BME280_pressure;Samples;Min_cycle;Max_cycle;Signal;HPM_P1;HPM_P2
2023/08/23 00:04:08;;;;;;;5.90;3.45;;;;;;;16.56;100.00;102004.22;10459088;28;20037;-70
2023/08/23 00:09:09;;;;;;;6.80;4.00;;;;;;;16.57;100.00;101999.56;10458585;28;20035;-70
2023/08/23 00:14:12;;;;;;;4.68;3.75;;;;;;;16.58;100.00;101999.34;10456498;28;20377;-70
2023/08/23 00:19:18;;;;;;;8.02;4.40;;;;;;;16.59;100.00;101997.44;10457168;28;20036;-70
2023/08/23 00:24:42;;;;;;;4.45;4.05;;;;;;;16.62;100.00;101997.03;10456315;28;20135;-70
2023/08/23 00:30:22;;;;;;;5.93;4.75;;;;;;;16.66;100.00;101992.84;10416436;28;20127;-70
2023/08/23 00:35:22;;;;;;;8.32;3.83;;;;;;;16.72;100.00;101992.00;10455504;28;20067;-67
2023/08/23 00:40:23;;;;;;;3.28;2.97;;;;;;;16.74;100.00;101981.66;10459191;28;20040;-68
2023/08/23 00:45:23;;;;;;;4.75;3.90;;;;;;;16.71;100.00;101979.34;10459994;28;20065;-68
2023/08/23 00:50:24;;;;;;;4.45;3.95;;;;;;;16.74;100.00;101976.19;10459026;28;20116;-68
2023/08/23 00:55:24;;;;;;;5.63;4.65;;;;;;;16.72;100.00;101972.84;10458996;28;20098;-68
2023/08/23 01:00:25;;;;;;;5.50;3.78;;;;;;;16.73;100.00;101977.25;10441420;28;20175;-68
2023/08/23 01:05:46;;;;;;;4.78;4.28;;;;;;;16.79;100.00;101981.06;10441363;28;20105;-68
2023/08/23 01:10:55;;;;;;;7.95;5.43;;;;;;;16.84;100.00;101968.41;10457589;28;20053;-68
2023/08/23 01:15:56;;;;;;;8.15;4.90;;;;;;;16.90;100.00;101973.03;10457607;28;20056;-68
2023/08/23 01:20:56;;;;;;;15.38;5.25;;;;;;;16.89;100.00;101976.84;10457311;28;20025;-68
2023/08/23 01:25:57;;;;;;;9.43;5.60;;;;;;;16.88;100.00;101980.63;10439671;28;20454;-68
2023/08/23 01:30:59;;;;;;;6.55;5.43;;;;;;;16.84;100.00;101968.41;10456988;28;20036;-68
2023/08/23 01:36:10;;;;;;;5.45;4.95;;;;;;;16.78;100.00;101968.44;10456574;28;20041;-68
2023/08/23 01:41:11;;;;;;;9.48;6.22;;;;;;;16.73;100.00;101960.84;10457976;28;20025;-69
2023/08/23 01:46:11;;;;;;;9.48;7.03;;;;;;;16.66;100.00;101963.59;10438268;28;20107;-68
2023/08/23 01:51:12;;;;;;;7.40;6.47;;;;;;;16.62;100.00;101954.09;10457282;28;20090;-68
2023/08/23 01:56:12;;;;;;;8.07;7.25;;;;;;;16.47;100.00;101953.50;10454563;28;20072;-68
2023/08/23 02:01:13;;;;;;;11.30;7.22;;;;;;;16.38;100.00;101958.34;10455787;28;20468;-68
2023/08/23 02:06:13;;;;;;;7.18;6.28;;;;;;;16.25;100.00;101956.44;10454617;28;20535;-68
2023/08/23 02:11:13;;;;;;;8.35;6.03;;;;;;;16.16;100.00;101959.59;10454827;28;20116;-68
2023/08/23 02:16:14;;;;;;;8.27;5.35;;;;;;;16.10;100.00;101957.69;10455928;28;20483;-68
2023/08/23 02:21:14;;;;;;;9.77;6.43;;;;;;;16.06;100.00;101953.69;10454672;28;20399;-68
2023/08/23 02:26:15;;;;;;;7.63;6.18;;;;;;;16.04;100.00;101957.47;10453807;28;20131;-68
2023/08/23 02:31:15;;;;;;;11.82;6.80;;;;;;;16.06;100.00;101942.78;10454041;28;20408;-68
2023/08/23 02:36:16;;;;;;;12.70;6.10;;;;;;;16.07;100.00;101936.25;10453292;28;20044;-68
2023/08/23 02:41:16;;;;;;;10.88;6.82;;;;;;;16.05;100.00;101936.47;10452493;28;20112;-68
2023/08/23 02:46:17;;;;;;;12.93;6.78;;;;;;;16.05;100.00;101941.94;10454450;28;20170;-67
2023/08/23 02:51:17;;;;;;;13.98;7.32;;;;;;;16.19;100.00;101937.31;10454163;28;20487;-68
2023/08/23 02:56:17;;;;;;;10.45;7.30;;;;;;;16.32;100.00;101937.31;10468643;28;20076;-68
2023/08/23 03:01:18;;;;;;;15.75;8.73;;;;;;;16.37;100.00;101933.94;10454363;28;20163;-68
2023/08/23 03:06:18;;;;;;;8.75;6.55;;;;;;;16.37;100.00;101929.34;10454398;28;20029;-68
2023/08/23 03:11:19;;;;;;;10.02;6.93;;;;;;;16.31;100.00;101941.09;10453993;28;20135;-68
2023/08/23 03:16:19;;;;;;;6.55;5.90;;;;;;;16.22;100.00;101932.25;10452575;28;20111;-68
2023/08/23 03:21:19;;;;;;;6.53;5.93;;;;;;;16.13;100.00;101943.63;10452844;28;20051;-68
2023/08/23 03:26:20;;;;;;;11.52;7.15;;;;;;;16.08;100.00;101943.38;10453121;28;20112;-68
2023/08/23 03:31:20;;;;;;;15.57;7.60;;;;;;;16.11;100.00;101949.28;10452345;28;20120;-68
2023/08/23 03:36:22;;;;;;;9.23;6.93;;;;;;;16.14;100.00;101937.94;10435810;28;20044;-68
2023/08/23 03:41:22;;;;;;;11.75;8.25;;;;;;;16.15;100.00;101939.63;10453180;28;20040;-67
2023/08/23 03:46:25;;;;;;;13.23;7.20;;;;;;;16.14;100.00;101948.03;10452617;28;20037;-68
2023/08/23 03:51:26;;;;;;;14.20;8.82;;;;;;;16.11;100.00;101937.50;10451929;28;20037;-68
2023/08/23 03:56:26;;;;;;;18.85;10.27;;;;;;;16.19;100.00;101942.78;10452654;28;20065;-68
2023/08/23 04:01:27;;;;;;;23.67;13.23;;;;;;;16.31;100.00;101934.81;10452674;28;20083;-68
2023/08/23 04:06:27;;;;;;;23.90;13.23;;;;;;;16.37;100.00;101923.00;10453183;28;20500;-68
2023/08/23 04:11:28;;;;;;;19.25;12.93;;;;;;;16.47;100.00;101928.91;10453176;28;20073;-68
2023/08/23 04:16:28;;;;;;;27.00;13.10;;;;;;;16.51;100.00;101931.00;10452234;28;20052;-68
2023/08/23 04:21:29;;;;;;;26.45;13.90;;;;;;;16.56;100.00;101927.63;10451912;28;20380;-68
2023/08/23 04:26:29;;;;;;;24.17;15.73;;;;;;;16.57;100.00;101926.56;10468376;28;20056;-68
2023/08/23 04:31:30;;;;;;;21.27;14.98;;;;;;;16.61;100.00;101918.78;10456677;28;20498;-69
2023/08/23 04:36:31;;;;;;;27.77;15.60;;;;;;;16.61;100.00;101925.09;10459743;28;20039;-71
2023/08/23 04:41:31;;;;;;;21.52;13.32;;;;;;;16.66;100.00;101924.47;10458276;28;20068;-69
2023/08/23 04:46:32;;;;;;;43.80;16.30;;;;;;;16.70;100.00;101932.03;10459646;28;20060;-69
2023/08/23 04:51:32;;;;;;;24.35;15.43;;;;;;;16.78;100.00;101930.97;10473909;28;20485;-71
2023/08/23 04:56:34;;;;;;;19.92;15.48;;;;;;;16.93;100.00;101928.84;10459071;28;20060;-71
2023/08/23 05:01:34;;;;;;;31.20;15.43;;;;;;;17.10;100.00;101925.63;10459744;28;20049;-69
2023/08/23 05:06:35;;;;;;;30.23;17.13;;;;;;;17.28;100.00;101923.03;10457286;28;20077;-69
2023/08/23 05:11:35;;;;;;;33.70;18.67;;;;;;;17.43;100.00;101922.78;10423886;28;20059;-69
2023/08/23 05:16:35;;;;;;;26.08;16.60;;;;;;;17.58;100.00;101934.28;10457298;28;20060;-69
2023/08/23 05:21:36;;;;;;;38.05;17.52;;;;;;;17.74;100.00;101921.09;10457425;28;20029;-69
2023/08/23 05:26:36;;;;;;;28.92;17.88;;;;;;;17.91;100.00;101932.44;10458173;28;20406;-68
2023/08/23 05:31:37;;;;;;;35.47;19.60;;;;;;;18.08;100.00;101928.06;10457237;28;20058;-68
2023/08/23 05:36:37;;;;;;;42.05;20.00;;;;;;;18.18;100.00;101920.19;10456627;28;20033;-69
2023/08/23 05:41:38;;;;;;;36.33;19.08;;;;;;;18.34;100.00;101930.59;10455598;28;20048;-68
2023/08/23 05:46:38;;;;;;;40.45;21.35;;;;;;;18.47;100.00;101934.28;10455876;28;20479;-68
2023/08/23 05:51:38;;;;;;;36.20;21.92;;;;;;;18.55;100.00;101939.50;10455902;28;20085;-69
2023/08/23 05:56:39;;;;;;;42.63;23.05;;;;;;;18.64;100.00;101946.38;10455352;28;20076;-68
2023/08/23 06:01:39;;;;;;;39.65;20.42;;;;;;;18.78;100.00;101947.13;10455842;28;20036;-68
2023/08/23 06:06:40;;;;;;;39.30;21.58;;;;;;;18.89;100.00;101951.00;10454833;28;20466;-68
2023/08/23 06:11:40;;;;;;;40.95;23.33;;;;;;;19.01;100.00;101957.41;10454536;28;20147;-68
2023/08/23 06:16:40;;;;;;;33.75;22.38;;;;;;;19.14;100.00;101957.25;10455199;28;20090;-69
2023/08/23 06:21:43;;;;;;;35.10;20.92;;;;;;;19.30;100.00;101964.06;10454595;28;20450;-68
2023/08/23 06:26:45;;;;;;;41.42;21.65;;;;;;;19.36;100.00;101965.03;10454285;28;20037;-68
2023/08/23 06:31:45;;;;;;;34.55;20.67;;;;;;;19.49;100.00;101962.97;10455141;28;20040;-68
2023/08/23 06:36:46;;;;;;;33.70;20.30;;;;;;;19.58;100.00;101963.50;10453819;28;20029;-69
2023/08/23 06:41:46;;;;;;;53.92;24.30;;;;;;;19.58;100.00;101968.16;10454902;28;20428;-69
2023/08/23 06:46:47;;;;;;;41.78;24.38;;;;;;;19.65;100.00;101969.75;10452262;28;20040;-68
2023/08/23 06:51:47;;;;;;;34.75;22.40;;;;;;;19.77;100.00;101967.06;10453639;28;20098;-69
2023/08/23 06:56:47;;;;;;;38.80;23.98;;;;;;;19.96;100.00;101976.94;10452162;28;20072;-68
2023/08/23 07:01:48;;;;;;;35.40;23.10;;;;;;;20.05;100.00;101971.13;10453754;28;20430;-68
2023/08/23 07:06:48;;;;;;;48.75;30.33;;;;;;;20.14;100.00;101973.31;10452520;28;20061;-68
2023/08/23 07:11:49;;;;;;;46.08;25.58;;;;;;;20.25;100.00;101979.06;10453219;28;20546;-69
2023/08/23 07:16:49;;;;;;;40.55;24.42;;;;;;;20.45;100.00;101982.31;10454063;28;20139;-69
2023/08/23 07:21:49;;;;;;;38.45;23.38;;;;;;;20.95;100.00;101994.81;10452626;28;20484;-68
2023/08/23 07:26:50;;;;;;;33.35;20.77;;;;;;;21.53;100.00;101993.91;10453666;28;20037;-69
2023/08/23 07:31:50;;;;;;;29.63;19.77;;;;;;;21.51;100.00;102005.19;10451262;28;20037;-69
2023/08/23 07:36:50;;;;;;;22.15;18.40;;;;;;;21.54;100.00;102004.72;10435946;28;20029;-69
2023/08/23 07:41:51;;;;;;;26.33;19.80;;;;;;;22.58;100.00;102005.53;10452796;28;20036;-69
2023/08/23 07:46:51;;;;;;;31.05;21.52;;;;;;;23.28;100.00;101993.91;10452469;28;20041;-69
2023/08/23 07:51:52;;;;;;;28.98;19.88;;;;;;;24.05;100.00;101987.34;10450551;28;20045;-69
2023/08/23 07:56:52;;;;;;;18.90;16.65;;;;;;;24.58;100.00;102004.19;10451927;28;20116;-69
2023/08/23 08:01:52;;;;;;;22.75;17.27;;;;;;;25.16;100.00;102010.69;10452712;28;20441;-69
2023/08/23 08:06:53;;;;;;;21.20;16.30;;;;;;;25.42;100.00;102014.44;10458069;28;20029;-69
2023/08/23 08:11:53;;;;;;;39.17;17.55;;;;;;;26.05;100.00;102019.94;10458214;28;20137;-69
2023/08/23 08:16:54;;;;;;;22.70;15.60;;;;;;;26.52;100.00;102021.69;10460342;28;20067;-69
2023/08/23 08:21:54;;;;;;;14.05;12.70;;;;;;;26.62;100.00;102024.47;10458605;28;20421;-69
2023/08/23 08:26:54;;;;;;;17.02;13.60;;;;;;;27.09;100.00;102014.94;10459565;28;20036;-69
2023/08/23 08:31:55;;;;;;;13.30;10.48;;;;;;;28.05;94.69;102001.75;10440368;28;20033;-69
2023/08/23 08:36:55;;;;;;;13.82;11.15;;;;;;;27.98;90.79;102012.41;10459316;28;20357;-69
2023/08/23 08:41:56;;;;;;;12.65;9.65;;;;;;;28.87;88.63;102014.19;10440300;28;20114;-69
2023/08/23 08:46:56;;;;;;;12.32;10.55;;;;;;;29.34;83.57;102012.59;10456690;28;20029;-69
2023/08/23 08:51:58;;;;;;;14.25;9.95;;;;;;;29.58;82.23;102013.41;10458063;28;20040;-69
2023/08/23 08:56:58;;;;;;;13.27;11.55;;;;;;;29.91;83.25;102016.31;10455997;28;20025;-69
2023/08/23 09:01:58;;;;;;;12.95;11.25;;;;;;;29.75;67.09;102018.50;10456191;28;20029;-69
2023/08/23 09:06:59;;;;;;;13.98;9.52;;;;;;;29.72;69.30;102019.09;10439503;28;20106;-69
2023/08/23 09:11:59;;;;;;;11.90;9.10;;;;;;;30.32;72.87;102013.75;10456582;28;20132;-69
2023/08/23 09:17:00;;;;;;;10.02;9.07;;;;;;;30.61;66.07;102014.69;10457396;28;20465;-69
2023/08/23 09:22:02;;;;;;;16.40;8.80;;;;;;;30.17;65.34;102013.97;10457644;28;20037;-69
2023/08/23 09:27:03;;;;;;;10.02;8.38;;;;;;;30.46;68.87;102010.19;10455801;28;20409;-69
2023/08/23 09:32:06;;;;;;;8.15;7.28;;;;;;;31.13;68.60;102013.44;10456604;28;20119;-69
2023/08/23 09:37:10;;;;;;;12.70;7.80;;;;;;;31.51;65.88;102002.06;10471661;28;20381;-69
2023/08/23 09:42:13;;;;;;;8.15;7.43;;;;;;;31.51;60.32;102004.84;10437285;28;20043;-69
2023/08/23 09:47:15;;;;;;;7.35;6.70;;;;;;;31.87;60.96;101992.84;10454521;28;20032;-69
2023/08/23 09:52:15;;;;;;;5.20;4.70;;;;;;;32.19;59.12;101991.81;10454350;28;20033;-69
2023/08/23 09:57:17;;;;;;;9.97;6.13;;;;;;;32.02;53.62;101995.31;10437995;28;20033;-69
2023/08/23 10:02:18;;;;;;;5.07;4.70;;;;;;;31.80;57.32;101987.69;10454491;28;20277;-69
2023/08/23 10:07:18;;;;;;;4.30;4.00;;;;;;;32.43;52.99;101980.34;10455907;28;20032;-69
2023/08/23 10:12:19;;;;;;;8.48;4.55;;;;;;;29.78;52.36;101975.19;10437362;28;20049;-69
2023/08/23 10:17:19;;;;;;;5.88;4.20;;;;;;;30.73;54.93;101978.69;10436263;28;20036;-69
2023/08/23 10:22:20;;;;;;;6.15;3.88;;;;;;;31.83;53.61;101975.84;10453277;28;20513;-70
2023/08/23 10:27:23;;;;;;;6.15;3.20;;;;;;;32.14;46.03;101966.75;10452228;28;20033;-69
2023/08/23 10:32:34;;;;;;;4.88;2.75;;;;;;;31.94;48.16;101966.09;10453277;28;20025;-69
2023/08/23 10:37:34;;;;;;;2.33;1.50;;;;;;;32.84;43.29;101954.00;10453918;28;20491;-69
2023/08/23 10:42:35;;;;;;;2.60;2.28;;;;;;;32.63;46.36;101959.31;10452488;28;20037;-69
2023/08/23 10:47:36;;;;;;;2.80;2.22;;;;;;;33.28;47.35;101957.78;10454435;28;20036;-69
2023/08/23 10:52:36;;;;;;;1.75;1.65;;;;;;;31.01;47.75;101962.75;10454497;28;20463;-69
2023/08/23 10:57:37;;;;;;;2.08;1.95;;;;;;;30.37;46.96;101967.28;10453184;28;20033;-69
2023/08/23 11:02:37;;;;;;;3.22;2.40;;;;;;;31.76;47.83;101960.63;10452572;28;20492;-69
2023/08/23 11:07:38;;;;;;;1.98;1.85;;;;;;;32.22;46.84;101970.75;10452170;28;20112;-69
2023/08/23 11:12:38;;;;;;;14.73;2.33;;;;;;;32.08;46.46;101957.63;10454040;28;20152;-70
2023/08/23 11:17:39;;;;;;;2.90;2.13;;;;;;;31.96;46.59;101961.00;10452999;28;20045;-69
2023/08/23 11:22:40;;;;;;;4.05;1.88;;;;;;;31.68;47.20;101957.41;10452143;28;20063;-69
2023/08/23 11:27:41;;;;;;;1.67;1.58;;;;;;;32.54;45.47;101955.63;10451635;28;20028;-69
2023/08/23 11:32:41;;;;;;;4.32;1.80;;;;;;;33.39;44.23;101961.94;10453632;28;20146;-70
2023/08/23 11:37:42;;;;;;;1.67;1.58;;;;;;;33.50;42.76;101954.06;10419795;28;20045;-69
2023/08/23 11:42:42;;;;;;;6.13;2.38;;;;;;;33.48;41.68;101956.34;10461215;28;20106;-69
2023/08/23 11:47:43;;;;;;;3.50;1.80;;;;;;;33.74;43.39;101956.41;10460853;28;20040;-69
2023/08/23 11:52:43;;;;;;;2.08;1.65;;;;;;;33.66;42.71;101963.66;10460469;28;20492;-69
2023/08/23 11:57:43;;;;;;;1.90;1.80;;;;;;;33.36;41.78;101965.41;10459261;28;20075;-69
2023/08/23 12:02:44;;;;;;;4.55;2.33;;;;;;;33.21;42.35;101961.06;10441522;28;20041;-69
2023/08/23 12:07:47;;;;;;;1.85;1.73;;;;;;;33.39;43.07;101973.19;10458550;28;20104;-70
2023/08/23 12:12:47;;;;;;;1.88;1.77;;;;;;;33.27;41.04;101973.78;10460099;28;20518;-69
2023/08/23 12:17:48;;;;;;;1.80;1.70;;;;;;;33.60;43.04;101983.81;10458347;28;20094;-69
2023/08/23 12:22:50;;;;;;;1.67;1.50;;;;;;;33.43;41.35;101988.19;10441519;28;20274;-69
2023/08/23 12:27:50;;;;;;;2.08;1.48;;;;;;;33.18;40.91;101981.38;10457762;28;20342;-69
2023/08/23 12:32:50;;;;;;;2.20;1.60;;;;;;;32.88;42.07;101983.03;10458928;28;20053;-69
2023/08/23 12:37:51;;;;;;;1.58;1.27;;;;;;;32.80;42.33;101981.00;10457179;28;20403;-69
2023/08/23 12:42:51;;;;;;;5.55;2.55;;;;;;;32.81;40.17;101977.91;10458019;28;20395;-69
2023/08/23 12:47:52;;;;;;;6.03;1.77;;;;;;;32.93;40.17;101973.66;10458585;28;20033;-69
2023/08/23 12:52:52;;;;;;;1.88;1.77;;;;;;;32.90;39.83;101975.16;10455755;28;20029;-70
2023/08/23 12:57:53;;;;;;;1.95;1.70;;;;;;;33.14;41.12;101973.94;10457457;28;20499;-69
2023/08/23 13:02:53;;;;;;;1.35;1.33;;;;;;;33.07;40.60;101963.19;10457008;28;20039;-69
2023/08/23 13:07:53;;;;;;;1.42;1.33;;;;;;;32.56;39.38;101968.19;10457477;28;20083;-69
2023/08/23 13:12:54;;;;;;;1.70;1.20;;;;;;;32.57;41.44;101967.03;10472847;28;20060;-69
2023/08/23 13:17:57;;;;;;;1.60;1.50;;;;;;;32.53;41.77;101968.03;10458505;28;20262;-69
2023/08/23 13:22:57;;;;;;;1.77;1.67;;;;;;;32.35;40.99;101976.28;10456019;28;20270;-70
2023/08/23 13:27:58;;;;;;;2.22;1.67;;;;;;;32.06;42.16;101962.72;10457000;28;20421;-70
2023/08/23 13:32:58;;;;;;;1.92;1.67;;;;;;;32.35;42.89;101972.66;10456328;28;20117;-69
2023/08/23 13:37:58;;;;;;;5.35;1.67;;;;;;;32.17;42.95;101964.13;10454650;28;20064;-69
2023/08/23 13:42:59;;;;;;;3.03;1.75;;;;;;;31.85;42.59;101956.75;10455753;28;20061;-70
2023/08/23 13:47:59;;;;;;;2.05;1.30;;;;;;;31.80;43.06;101953.25;10454870;28;20033;-70
2023/08/23 13:53:00;;;;;;;3.53;2.08;;;;;;;31.65;42.38;101940.41;10456391;28;20083;-70
2023/08/23 13:58:00;;;;;;;1.73;1.63;;;;;;;31.38;42.43;101944.13;10455173;28;20039;-69
2023/08/23 14:03:01;;;;;;;1.30;1.25;;;;;;;31.38;42.70;101938.53;10455221;28;20037;-70
2023/08/23 14:08:01;;;;;;;1.52;1.27;;;;;;;31.31;43.75;101938.91;10455626;28;20144;-69
2023/08/23 14:13:01;;;;;;;1.58;1.48;;;;;;;31.26;43.50;101931.44;10454795;28;20475;-69
2023/08/23 14:18:02;;;;;;;8.45;2.00;;;;;;;31.01;43.68;101930.00;10453458;28;20107;-69
2023/08/23 14:23:04;;;;;;;1.48;1.33;;;;;;;30.83;43.43;101921.75;10454724;28;20043;-69
2023/08/23 14:28:04;;;;;;;6.65;2.05;;;;;;;30.69;44.51;101922.53;10453734;28;20051;-69
2023/08/23 14:33:05;;;;;;;2.60;2.40;;;;;;;30.47;45.13;101917.66;10453005;28;20119;-69
2023/08/23 14:38:06;;;;;;;2.13;1.85;;;;;;;30.10;44.50;101915.75;10454252;28;20025;-69
2023/08/23 14:43:06;;;;;;;1.38;1.38;;;;;;;29.93;46.03;101905.16;10452537;28;20044;-69
2023/08/23 14:48:06;;;;;;;1.92;1.50;;;;;;;29.55;46.84;101899.56;10453503;28;20071;-69
2023/08/23 14:53:07;;;;;;;2.05;1.55;;;;;;;29.42;47.54;101906.72;10436000;28;20041;-69
2023/08/23 14:58:07;;;;;;;9.23;1.95;;;;;;;29.00;48.12;101903.91;10452860;28;20032;-69
2023/08/23 15:03:08;;;;;;;3.38;2.60;;;;;;;28.77;48.79;101911.16;10452890;28;20040;-69
2023/08/23 15:08:08;;;;;;;2.25;2.05;;;;;;;27.59;49.54;101910.16;10452037;28;20408;-69
2023/08/23 15:13:09;;;;;;;1.88;1.73;;;;;;;26.74;49.59;101917.72;10452106;28;20122;-69
2023/08/23 15:18:09;;;;;;;1.70;1.50;;;;;;;26.34;50.34;101913.91;10453654;28;20062;-69
2023/08/23 15:23:10;;;;;;;2.13;1.52;;;;;;;26.08;50.77;101919.47;10453157;28;20060;-69
2023/08/23 15:28:10;;;;;;;2.90;2.00;;;;;;;25.37;51.78;101927.63;10452541;28;20105;-68
2023/08/23 15:33:11;;;;;;;2.33;2.13;;;;;;;25.04;52.33;101918.59;10452600;28;20037;-69
2023/08/23 15:38:11;;;;;;;5.60;2.05;;;;;;;24.75;53.41;101929.22;10435607;28;20366;-69
2023/08/23 15:43:11;;;;;;;2.30;2.13;;;;;;;24.38;53.73;101930.06;10452206;28;20484;-69
2023/08/23 15:48:12;;;;;;;2.42;1.42;;;;;;;24.04;54.31;101916.50;10450908;28;20045;-68
2023/08/23 15:53:12;;;;;;;2.40;1.90;;;;;;;23.74;55.17;101917.06;10451413;28;20079;-68
2023/08/23 15:58:13;;;;;;;1.90;1.80;;;;;;;23.63;56.48;101912.47;10452705;28;20040;-68
2023/08/23 16:03:13;;;;;;;5.10;1.63;;;;;;;23.63;55.26;101915.25;10450724;28;20039;-68
2023/08/23 16:08:14;;;;;;;3.13;1.58;;;;;;;23.51;55.17;101907.09;10467406;28;20078;-68
2023/08/23 16:13:14;;;;;;;4.82;1.67;;;;;;;23.42;55.73;101905.88;10450995;28;20148;-68
2023/08/23 16:18:14;;;;;;;10.90;1.60;;;;;;;23.39;56.31;101903.66;10452334;28;20044;-70
2023/08/23 16:23:15;;;;;;;2.13;1.90;;;;;;;23.16;56.76;101902.81;10451640;28;20499;-68
2023/08/23 16:28:15;;;;;;;2.85;1.95;;;;;;;22.97;57.11;101907.00;10457976;28;20426;-69
2023/08/23 16:33:18;;;;;;;3.28;2.15;;;;;;;22.89;58.01;101911.00;10459943;28;20032;-68
2023/08/23 16:38:18;;;;;;;4.22;3.42;;;;;;;22.82;57.35;101896.56;10473911;28;20368;-68
2023/08/23 16:43:19;;;;;;;2.38;1.67;;;;;;;22.64;58.81;101897.69;10457419;28;20120;-68
2023/08/23 16:48:19;;;;;;;2.45;2.22;;;;;;;22.59;58.49;101907.81;10457201;28;20055;-68
2023/08/23 16:53:19;;;;;;;2.28;2.08;;;;;;;22.55;59.39;101912.19;10458514;28;20119;-68
2023/08/23 16:58:20;;;;;;;1.75;1.65;;;;;;;22.51;58.76;101904.41;10459142;28;20098;-68
2023/08/23 17:03:20;;;;;;;1.98;1.83;;;;;;;22.47;58.71;101894.97;10457932;28;20143;-69
2023/08/23 17:08:21;;;;;;;3.83;2.33;;;;;;;22.41;58.77;101890.44;10440207;28;20084;-68
2023/08/23 17:13:21;;;;;;;2.22;2.08;;;;;;;22.31;59.17;101892.22;10458227;28;20118;-69
2023/08/23 17:18:21;;;;;;;2.78;1.90;;;;;;;22.15;61.18;101910.44;10457682;28;20045;-68
2023/08/23 17:23:22;;;;;;;1.58;1.48;;;;;;;22.04;60.80;101910.22;10456930;28;20068;-68
2023/08/23 17:28:22;;;;;;;7.40;1.60;;;;;;;21.98;61.03;101904.88;10455672;28;20064;-70
2023/08/23 17:33:23;;;;;;;7.88;1.75;;;;;;;21.94;61.19;101900.94;10455067;28;20075;-68
2023/08/23 17:38:23;;;;;;;3.97;2.03;;;;;;;21.82;62.11;101904.63;10456354;28;20337;-68
2023/08/23 17:43:25;;;;;;;5.00;2.00;;;;;;;21.75;60.99;101912.19;10455951;28;20061;-68
2023/08/23 17:48:28;;;;;;;2.75;1.83;;;;;;;21.63;61.47;101903.16;10456706;28;20429;-68
2023/08/23 17:53:29;;;;;;;3.35;2.15;;;;;;;21.53;61.32;101901.03;10438414;28;20037;-68
2023/08/23 17:58:29;;;;;;;2.35;1.60;;;;;;;21.38;62.89;101903.53;10456465;28;20057;-68
2023/08/23 18:03:29;;;;;;;3.47;1.85;;;;;;;21.28;62.82;101893.09;10455374;28;20052;-68
2023/08/23 18:08:30;;;;;;;2.17;1.98;;;;;;;21.16;63.90;101891.47;10455619;28;20040;-68
2023/08/23 18:13:30;;;;;;;7.45;2.15;;;;;;;21.02;65.46;101899.97;10456287;28;20083;-68
2023/08/23 18:18:31;;;;;;;1.90;1.77;;;;;;;20.87;70.26;101895.00;10454315;28;20032;-68
2023/08/23 18:23:31;;;;;;;6.32;2.65;;;;;;;20.71;71.32;101890.25;10454456;28;20044;-68
2023/08/23 18:28:32;;;;;;;13.73;4.20;;;;;;;20.55;73.83;101886.31;10436784;28;20120;-68
2023/08/23 18:33:34;;;;;;;2.28;2.08;;;;;;;20.42;74.42;101875.47;10455612;28;20048;-68
2023/08/23 18:38:37;;;;;;;3.33;3.13;;;;;;;20.25;76.05;101874.53;10453481;28;20033;-74
2023/08/23 18:43:38;;;;;;;3.33;3.13;;;;;;;20.10;75.40;101873.09;10454343;28;20124;-68
2023/08/23 18:48:38;;;;;;;5.30;2.80;;;;;;;19.96;74.24;101871.63;10436036;28;20032;-68
2023/08/23 18:53:40;;;;;;;12.20;5.55;;;;;;;19.84;73.90;101881.75;10452616;28;20123;-67
2023/08/23 18:58:41;;;;;;;9.30;7.65;;;;;;;19.71;72.91;101889.13;10453931;28;20072;-68
2023/08/23 19:03:41;;;;;;;16.83;6.65;;;;;;;19.58;72.34;101888.47;10435720;28;20083;-66
2023/08/23 19:08:42;;;;;;;2.28;2.08;;;;;;;19.47;74.65;101898.34;10453308;28;20057;-68
2023/08/23 19:13:43;;;;;;;2.22;1.63;;;;;;;19.38;73.89;101888.75;10435938;28;20527;-67
2023/08/23 19:18:44;;;;;;;2.15;1.80;;;;;;;19.29;73.74;101883.56;10438045;28;20136;-67
2023/08/23 19:23:44;;;;;;;6.75;2.10;;;;;;;19.16;73.82;101882.91;10454000;28;20036;-67
2023/08/23 19:28:45;;;;;;;2.25;1.38;;;;;;;19.03;74.85;101894.91;10453511;28;20033;-67
2023/08/23 19:33:45;;;;;;;3.60;1.40;;;;;;;18.90;75.35;101892.31;10452485;28;20446;-68
2023/08/23 19:38:45;;;;;;;1.17;1.17;;;;;;;18.82;76.77;101893.44;10436288;28;20109;-68
2023/08/23 19:43:46;;;;;;;4.70;1.63;;;;;;;18.84;76.58;101890.50;10436443;28;20037;-69
2023/08/23 19:48:46;;;;;;;2.70;2.28;;;;;;;18.84;76.72;101885.00;10451694;28;20076;-68
2023/08/23 19:53:47;;;;;;;5.35;2.58;;;;;;;18.76;76.56;101886.13;10453650;28;20052;-69
2023/08/23 19:58:48;;;;;;;3.00;2.65;;;;;;;18.69;77.49;101891.66;10454647;28;20145;-68
2023/08/23 20:03:51;;;;;;;1.55;1.48;;;;;;;18.62;80.01;101892.81;10460071;28;20140;-68
2023/08/23 20:08:51;;;;;;;2.00;1.58;;;;;;;18.51;80.20;101897.13;10459044;28;20029;-68
2023/08/23 20:13:52;;;;;;;2.53;1.88;;;;;;;18.42;82.56;101890.25;10460106;28;20132;-68
2023/08/23 20:18:54;;;;;;;2.67;2.08;;;;;;;18.29;91.15;101881.09;10460001;28;20044;-68
2023/08/23 20:23:55;;;;;;;6.70;2.72;;;;;;;18.26;88.85;101883.44;10458906;28;20029;-69
2023/08/23 20:28:55;;;;;;;3.90;2.45;;;;;;;18.12;94.28;101888.19;10459868;28;20424;-68
2023/08/23 20:33:56;;;;;;;2.38;2.25;;;;;;;18.07;92.25;101890.78;10459086;28;20033;-68
2023/08/23 20:38:56;;;;;;;9.77;3.50;;;;;;;17.97;94.95;101882.22;10441367;28;20115;-68
2023/08/23 20:43:57;;;;;;;2.33;2.20;;;;;;;17.93;93.71;101873.56;10458171;28;20435;-68
2023/08/23 20:48:57;;;;;;;5.93;3.30;;;;;;;17.89;94.71;101875.94;10456989;28;20029;-68
2023/08/23 20:53:58;;;;;;;7.20;4.50;;;;;;;17.80;99.80;101882.72;10457180;28;20102;-67
2023/08/23 20:58:58;;;;;;;5.20;3.65;;;;;;;17.71;100.00;101873.09;10406959;28;20101;-68
2023/08/23 21:03:59;;;;;;;4.32;2.92;;;;;;;17.71;97.92;101878.59;10456861;28;20120;-68
2023/08/23 21:08:59;;;;;;;11.50;3.10;;;;;;;17.69;96.59;101894.38;10457825;28;20134;-68
2023/08/23 21:14:01;;;;;;;5.72;4.60;;;;;;;17.67;94.92;101891.00;10455839;28;20139;-68
2023/08/23 21:19:01;;;;;;;4.53;3.38;;;;;;;17.64;94.49;101897.78;10458085;28;20056;-69
2023/08/23 21:24:02;;;;;;;11.38;3.70;;;;;;;17.62;93.60;101890.84;10440619;28;20116;-68
2023/08/23 21:29:02;;;;;;;7.15;4.75;;;;;;;17.62;95.58;101885.38;10457703;28;20029;-67
2023/08/23 21:34:03;;;;;;;5.43;4.00;;;;;;;17.66;94.26;101889.34;10439315;28;20485;-68
2023/08/23 21:39:03;;;;;;;6.22;4.80;;;;;;;17.65;95.83;101876.72;10455868;28;20399;-67
2023/08/23 21:44:04;;;;;;;4.13;3.80;;;;;;;17.60;97.28;101874.63;10457134;28;20083;-67
2023/08/23 21:49:04;;;;;;;6.40;5.40;;;;;;;17.60;96.20;101871.06;10456096;28;20107;-67
2023/08/23 21:54:05;;;;;;;5.72;5.03;;;;;;;17.57;96.53;101880.53;10458147;28;20116;-68
2023/08/23 21:59:08;;;;;;;5.40;4.90;;;;;;;17.48;96.57;101873.63;10456097;28;20051;-68
2023/08/23 22:04:08;;;;;;;8.77;4.55;;;;;;;17.45;96.75;101885.03;10456778;28;20033;-68
2023/08/23 22:09:09;;;;;;;4.50;4.10;;;;;;;17.40;96.51;101880.22;10454122;28;20456;-67
2023/08/23 22:14:10;;;;;;;6.97;4.40;;;;;;;17.39;95.93;101888.69;10457876;28;20137;-68
2023/08/23 22:19:10;;;;;;;5.28;4.88;;;;;;;17.37;95.79;101880.66;10437090;28;20076;-68
2023/08/23 22:24:11;;;;;;;14.55;6.97;;;;;;;17.27;99.33;101883.03;10456010;28;20056;-68
2023/08/23 22:29:11;;;;;;;5.75;5.25;;;;;;;17.18;100.00;101871.50;10457164;28;20036;-67
2023/08/23 22:34:11;;;;;;;9.30;4.50;;;;;;;17.13;100.00;101870.47;10454672;28;20147;-68
2023/08/23 22:39:12;;;;;;;9.35;5.40;;;;;;;17.03;100.00;101868.19;10453763;28;20044;-68
2023/08/23 22:44:12;;;;;;;6.97;4.78;;;;;;;16.94;100.00;101859.41;10455557;28;20043;-67
2023/08/23 22:49:13;;;;;;;10.95;5.30;;;;;;;16.91;100.00;101854.34;10454193;28;20546;-67